sensor_id;sensor_type;location;lat;lon;timestamp;P1;durP1;ratioP1;P2;durP2;ratioP2
34924;SDS011;21130;51.728;8.748;2023-08-24T00:01:40;21.85;;;19.85;;
34924;SDS011;21130;51.728;8.748;2023-08-24T00:04:07;24.30;;;22.27;;
34924;SDS011;21130;51.728;8.748;2023-08-24T00:06:36;22.17;;;20.40;;
34924;SDS011;21130;51.728;8.748;2023-08-24T00:09:03;21.35;;;19.52;;
34924;SDS011;21130;51.728;8.748;2023-08-24T00:11:30;21.65;;;19.85;;
34924;SDS011;21130;51.728;8.748;2023-08-24T00:13:57;22.55;;;20.65;;
34924;SDS011;21130;51.728;8.748;2023-08-24T00:16:23;24.10;;;22.17;;
34924;SDS011;21130;51.728;8.748;2023-08-24T00:18:50;24.23;;;22.00;;
34924;SDS011;21130;51.728;8.748;2023-08-24T00:21:16;25.00;;;22.80;;
34924;SDS011;21130;51.728;8.748;2023-08-24T00:23:45;23.15;;;21.25;;
34924;SDS011;21130;51.728;8.748;2023-08-24T00:26:12;21.73;;;19.83;;
34924;SDS011;21130;51.728;8.748;2023-08-24T00:28:38;22.33;;;20.33;;
34924;SDS011;21130;51.728;8.748;2023-08-24T00:31:05;22.95;;;20.85;;
34924;SDS011;21130;51.728;8.748;2023-08-24T00:33:31;22.05;;;20.15;;
34924;SDS011;21130;51.728;8.748;2023-08-24T00:35:59;21.70;;;19.88;;
34924;SDS011;21130;51.728;8.748;2023-08-24T00:38:26;20.00;;;18.23;;
34924;SDS011;21130;51.728;8.748;2023-08-24T00:40:55;19.58;;;18.00;;
34924;SDS011;21130;51.728;8.748;2023-08-24T00:43:21;24.10;;;21.92;;
34924;SDS011;21130;51.728;8.748;2023-08-24T00:45:49;22.05;;;20.13;;
34924;SDS011;21130;51.728;8.748;2023-08-24T00:48:16;19.73;;;17.92;;
34924;SDS011;21130;51.728;8.748;2023-08-24T00:50:42;19.67;;;17.95;;
34924;SDS011;21130;51.728;8.748;2023-08-24T00:53:09;25.83;;;22.95;;
34924;SDS011;21130;51.728;8.748;2023-08-24T00:55:36;24.98;;;22.77;;
34924;SDS011;21130;51.728;8.748;2023-08-24T00:58:04;21.88;;;20.05;;
34924;SDS011;21130;51.728;8.748;2023-08-24T01:00:31;20.92;;;18.95;;
34924;SDS011;21130;51.728;8.748;2023-08-24T01:02:58;20.13;;;18.27;;
34924;SDS011;21130;51.728;8.748;2023-08-24T01:05:24;19.10;;;17.52;;
34924;SDS011;21130;51.728;8.748;2023-08-24T01:07:51;20.20;;;18.25;;
34924;SDS011;21130;51.728;8.748;2023-08-24T01:10:17;19.17;;;17.58;;
34924;SDS011;21130;51.728;8.748;2023-08-24T01:12:50;18.75;;;17.20;;
34924;SDS011;21130;51.728;8.748;2023-08-24T01:15:29;21.85;;;20.00;;
34924;SDS011;21130;51.728;8.748;2023-08-24T01:18:00;22.48;;;20.45;;
34924;SDS011;21130;51.728;8.748;2023-08-24T01:20:30;23.77;;;21.67;;
34924;SDS011;21130;51.728;8.748;2023-08-24T01:23:03;21.73;;;19.83;;
34924;SDS011;21130;51.728;8.748;2023-08-24T01:25:37;21.15;;;19.38;;
34924;SDS011;21130;51.728;8.748;2023-08-24T01:28:07;20.95;;;19.15;;
34924;SDS011;21130;51.728;8.748;2023-08-24T01:30:39;23.42;;;21.02;;
34924;SDS011;21130;51.728;8.748;2023-08-24T01:33:05;24.77;;;22.52;;
34924;SDS011;21130;51.728;8.748;2023-08-24T01:35:36;24.92;;;22.83;;
34924;SDS011;21130;51.728;8.748;2023-08-24T01:38:03;25.20;;;23.00;;
34924;SDS011;21130;51.728;8.748;2023-08-24T01:40:33;26.40;;;24.10;;
34924;SDS011;21130;51.728;8.748;2023-08-24T01:43:07;24.98;;;22.63;;
34924;SDS011;21130;51.728;8.748;2023-08-24T01:45:37;24.00;;;22.02;;
34924;SDS011;21130;51.728;8.748;2023-08-24T01:48:07;26.40;;;23.92;;
34924;SDS011;21130;51.728;8.748;2023-08-24T01:50:35;27.60;;;24.95;;
34924;SDS011;21130;51.728;8.748;2023-08-24T01:53:03;26.92;;;24.38;;
34924;SDS011;21130;51.728;8.748;2023-08-24T01:55:29;28.17;;;25.88;;
34924;SDS011;21130;51.728;8.748;2023-08-24T01:57:56;28.50;;;26.10;;
34924;SDS011;21130;51.728;8.748;2023-08-24T02:00:24;27.63;;;25.27;;
34924;SDS011;21130;51.728;8.748;2023-08-24T02:02:50;24.25;;;22.33;;
34924;SDS011;21130;51.728;8.748;2023-08-24T02:05:17;27.08;;;24.67;;
34924;SDS011;21130;51.728;8.748;2023-08-24T02:07:43;28.67;;;26.23;;
34924;SDS011;21130;51.728;8.748;2023-08-24T02:10:10;29.15;;;26.75;;
34924;SDS011;21130;51.728;8.748;2023-08-24T02:12:36;27.35;;;24.85;;
34924;SDS011;21130;51.728;8.748;2023-08-24T02:15:03;24.63;;;22.50;;
34924;SDS011;21130;51.728;8.748;2023-08-24T02:17:32;26.50;;;24.30;;
34924;SDS011;21130;51.728;8.748;2023-08-24T02:19:58;26.27;;;23.88;;
34924;SDS011;21130;51.728;8.748;2023-08-24T02:22:25;24.17;;;22.13;;
34924;SDS011;21130;51.728;8.748;2023-08-24T02:24:53;24.92;;;22.92;;
34924;SDS011;21130;51.728;8.748;2023-08-24T02:27:19;26.42;;;24.17;;
34924;SDS011;21130;51.728;8.748;2023-08-24T02:30:06;30.75;;;27.85;;
34924;SDS011;21130;51.728;8.748;2023-08-24T02:32:55;27.77;;;25.40;;
34924;SDS011;21130;51.728;8.748;2023-08-24T02:35:39;30.85;;;28.35;;
34924;SDS011;21130;51.728;8.748;2023-08-24T02:38:23;31.45;;;28.55;;
34924;SDS011;21130;51.728;8.748;2023-08-24T02:40:59;31.67;;;28.58;;
34924;SDS011;21130;51.728;8.748;2023-08-24T02:43:27;28.35;;;25.95;;
34924;SDS011;21130;51.728;8.748;2023-08-24T02:45:54;29.83;;;27.40;;
34924;SDS011;21130;51.728;8.748;2023-08-24T02:48:21;27.90;;;25.52;;
34924;SDS011;21130;51.728;8.748;2023-08-24T02:50:48;26.92;;;24.73;;
34924;SDS011;21130;51.728;8.748;2023-08-24T02:53:14;28.10;;;25.80;;
34924;SDS011;21130;51.728;8.748;2023-08-24T02:55:41;26.13;;;24.02;;
34924;SDS011;21130;51.728;8.748;2023-08-24T02:58:07;27.90;;;25.50;;
34924;SDS011;21130;51.728;8.748;2023-08-24T03:00:34;28.08;;;25.50;;
34924;SDS011;21130;51.728;8.748;2023-08-24T03:03:06;31.23;;;28.48;;
34924;SDS011;21130;51.728;8.748;2023-08-24T03:05:33;27.92;;;25.73;;
34924;SDS011;21130;51.728;8.748;2023-08-24T03:08:00;30.25;;;27.73;;
34924;SDS011;21130;51.728;8.748;2023-08-24T03:10:29;30.75;;;28.10;;
34924;SDS011;21130;51.728;8.748;2023-08-24T03:12:55;29.83;;;27.33;;
34924;SDS011;21130;51.728;8.748;2023-08-24T03:15:22;31.77;;;29.08;;
34924;SDS011;21130;51.728;8.748;2023-08-24T03:17:48;29.92;;;27.25;;
34924;SDS011;21130;51.728;8.748;2023-08-24T03:20:15;29.48;;;26.80;;
34924;SDS011;21130;51.728;8.748;2023-08-24T03:22:43;33.42;;;30.27;;
34924;SDS011;21130;51.728;8.748;2023-08-24T03:25:09;34.60;;;31.52;;
34924;SDS011;21130;51.728;8.748;2023-08-24T03:27:36;34.08;;;31.05;;
34924;SDS011;21130;51.728;8.748;2023-08-24T03:30:04;33.72;;;30.85;;
34924;SDS011;21130;51.728;8.748;2023-08-24T03:32:32;32.38;;;29.67;;
34924;SDS011;21130;51.728;8.748;2023-08-24T03:34:59;31.20;;;28.50;;
34924;SDS011;21130;51.728;8.748;2023-08-24T03:37:25;28.25;;;25.92;;
34924;SDS011;21130;51.728;8.748;2023-08-24T03:39:53;32.45;;;29.55;;
34924;SDS011;21130;51.728;8.748;2023-08-24T03:42:20;31.98;;;29.20;;
34924;SDS011;21130;51.728;8.748;2023-08-24T03:44:46;34.53;;;31.58;;
34924;SDS011;21130;51.728;8.748;2023-08-24T03:47:13;35.42;;;32.35;;
34924;SDS011;21130;51.728;8.748;2023-08-24T03:49:41;34.90;;;31.90;;
34924;SDS011;21130;51.728;8.748;2023-08-24T03:52:08;31.52;;;28.63;;
34924;SDS011;21130;51.728;8.748;2023-08-24T03:54:34;29.80;;;27.30;;
34924;SDS011;21130;51.728;8.748;2023-08-24T03:57:02;27.48;;;25.17;;
34924;SDS011;21130;51.728;8.748;2023-08-24T03:59:29;30.42;;;27.90;;
34924;SDS011;21130;51.728;8.748;2023-08-24T04:01:55;29.55;;;26.95;;
34924;SDS011;21130;51.728;8.748;2023-08-24T04:04:24;28.90;;;26.55;;
34924;SDS011;21130;51.728;8.748;2023-08-24T04:06:51;29.58;;;27.08;;
34924;SDS011;21130;51.728;8.748;2023-08-24T04:09:17;28.17;;;25.88;;
34924;SDS011;21130;51.728;8.748;2023-08-24T04:11:44;30.60;;;27.98;;
34924;SDS011;21130;51.728;8.748;2023-08-24T04:14:12;32.65;;;30.05;;
34924;SDS011;21130;51.728;8.748;2023-08-24T04:16:39;31.80;;;29.10;;
34924;SDS011;21130;51.728;8.748;2023-08-24T04:19:06;30.65;;;28.08;;
34924;SDS011;21130;51.728;8.748;2023-08-24T04:21:33;33.85;;;31.05;;
34924;SDS011;21130;51.728;8.748;2023-08-24T04:24:00;31.83;;;29.13;;
34924;SDS011;21130;51.728;8.748;2023-08-24T04:26:26;33.08;;;30.20;;
34924;SDS011;21130;51.728;8.748;2023-08-24T04:28:53;33.50;;;30.60;;
34924;SDS011;21130;51.728;8.748;2023-08-24T04:31:20;34.55;;;31.33;;
34924;SDS011;21130;51.728;8.748;2023-08-24T04:33:47;33.13;;;30.27;;
34924;SDS011;21130;51.728;8.748;2023-08-24T04:36:13;34.90;;;31.98;;
34924;SDS011;21130;51.728;8.748;2023-08-24T04:38:40;38.45;;;34.92;;
34924;SDS011;21130;51.728;8.748;2023-08-24T04:41:08;32.30;;;29.58;;
34924;SDS011;21130;51.728;8.748;2023-08-24T04:43:37;31.02;;;28.30;;
34924;SDS011;21130;51.728;8.748;2023-08-24T04:46:04;31.90;;;29.13;;
34924;SDS011;21130;51.728;8.748;2023-08-24T04:48:32;31.60;;;28.83;;
34924;SDS011;21130;51.728;8.748;2023-08-24T04:50:59;29.60;;;26.95;;
34924;SDS011;21130;51.728;8.748;2023-08-24T04:53:26;35.50;;;32.40;;
34924;SDS011;21130;51.728;8.748;2023-08-24T04:55:52;33.30;;;30.58;;
34924;SDS011;21130;51.728;8.748;2023-08-24T04:58:19;35.58;;;32.50;;
34924;SDS011;21130;51.728;8.748;2023-08-24T05:00:45;34.85;;;31.90;;
34924;SDS011;21130;51.728;8.748;2023-08-24T05:03:13;34.47;;;31.23;;
34924;SDS011;21130;51.728;8.748;2023-08-24T05:05:41;31.50;;;28.80;;
34924;SDS011;21130;51.728;8.748;2023-08-24T05:08:08;31.20;;;28.58;;
34924;SDS011;21130;51.728;8.748;2023-08-24T05:10:35;28.35;;;25.77;;
34924;SDS011;21130;51.728;8.748;2023-08-24T05:13:02;26.45;;;24.08;;
34924;SDS011;21130;51.728;8.748;2023-08-24T05:15:29;26.15;;;23.85;;
34924;SDS011;21130;51.728;8.748;2023-08-24T05:17:55;22.58;;;20.67;;
34924;SDS011;21130;51.728;8.748;2023-08-24T05:20:24;24.08;;;22.17;;
34924;SDS011;21130;51.728;8.748;2023-08-24T05:22:52;23.08;;;21.08;;
34924;SDS011;21130;51.728;8.748;2023-08-24T05:25:20;22.20;;;20.45;;
34924;SDS011;21130;51.728;8.748;2023-08-24T05:27:46;22.35;;;20.50;;
34924;SDS011;21130;51.728;8.748;2023-08-24T05:30:13;21.10;;;19.40;;
34924;SDS011;21130;51.728;8.748;2023-08-24T05:32:39;19.40;;;17.73;;
34924;SDS011;21130;51.728;8.748;2023-08-24T05:35:06;19.63;;;18.02;;
34924;SDS011;21130;51.728;8.748;2023-08-24T05:37:33;19.33;;;17.70;;
34924;SDS011;21130;51.728;8.748;2023-08-24T05:40:22;19.38;;;17.77;;
34924;SDS011;21130;51.728;8.748;2023-08-24T05:42:48;20.98;;;19.27;;
34924;SDS011;21130;51.728;8.748;2023-08-24T05:45:15;19.52;;;18.00;;
34924;SDS011;21130;51.728;8.748;2023-08-24T05:47:42;18.13;;;16.63;;
34924;SDS011;21130;51.728;8.748;2023-08-24T05:50:08;17.17;;;15.88;;
34924;SDS011;21130;51.728;8.748;2023-08-24T05:52:36;16.20;;;15.00;;
34924;SDS011;21130;51.728;8.748;2023-08-24T05:55:03;16.98;;;15.63;;
34924;SDS011;21130;51.728;8.748;2023-08-24T05:57:31;20.13;;;18.33;;
34924;SDS011;21130;51.728;8.748;2023-08-24T05:59:58;18.38;;;16.88;;
34924;SDS011;21130;51.728;8.748;2023-08-24T06:02:24;16.98;;;15.38;;
34924;SDS011;21130;51.728;8.748;2023-08-24T06:04:51;15.18;;;14.02;;
34924;SDS011;21130;51.728;8.748;2023-08-24T06:07:17;16.55;;;15.00;;
34924;SDS011;21130;51.728;8.748;2023-08-24T06:09:44;16.05;;;14.75;;
34924;SDS011;21130;51.728;8.748;2023-08-24T06:12:10;15.13;;;14.02;;
34924;SDS011;21130;51.728;8.748;2023-08-24T06:14:38;15.63;;;14.32;;
34924;SDS011;21130;51.728;8.748;2023-08-24T06:17:04;14.90;;;13.52;;
34924;SDS011;21130;51.728;8.748;2023-08-24T06:19:31;15.57;;;14.27;;
34924;SDS011;21130;51.728;8.748;2023-08-24T06:21:57;14.95;;;13.82;;
34924;SDS011;21130;51.728;8.748;2023-08-24T06:24:24;17.33;;;15.93;;
34924;SDS011;21130;51.728;8.748;2023-08-24T06:26:50;17.23;;;15.73;;
34924;SDS011;21130;51.728;8.748;2023-08-24T06:29:17;18.25;;;16.55;;
34924;SDS011;21130;51.728;8.748;2023-08-24T06:31:44;18.25;;;16.45;;
34924;SDS011;21130;51.728;8.748;2023-08-24T06:34:11;16.77;;;15.13;;
34924;SDS011;21130;51.728;8.748;2023-08-24T06:36:37;14.95;;;13.65;;
34924;SDS011;21130;51.728;8.748;2023-08-24T06:39:05;13.73;;;12.43;;
34924;SDS011;21130;51.728;8.748;2023-08-24T06:41:32;12.48;;;11.27;;
34924;SDS011;21130;51.728;8.748;2023-08-24T06:43:59;11.45;;;10.30;;
34924;SDS011;21130;51.728;8.748;2023-08-24T06:46:47;13.98;;;11.88;;
34924;SDS011;21130;51.728;8.748;2023-08-24T06:52:22;10.20;;;9.23;;
34924;SDS011;21130;51.728;8.748;2023-08-24T06:54:49;10.43;;;9.35;;
34924;SDS011;21130;51.728;8.748;2023-08-24T06:57:18;9.27;;;8.38;;
34924;SDS011;21130;51.728;8.748;2023-08-24T06:59:45;10.15;;;8.35;;
34924;SDS011;21130;51.728;8.748;2023-08-24T07:02:13;8.25;;;7.35;;
34924;SDS011;21130;51.728;8.748;2023-08-24T07:04:40;9.30;;;8.35;;
34924;SDS011;21130;51.728;8.748;2023-08-24T07:07:06;10.32;;;8.18;;
34924;SDS011;21130;51.728;8.748;2023-08-24T07:09:33;8.50;;;7.15;;
34924;SDS011;21130;51.728;8.748;2023-08-24T07:12:00;9.18;;;8.38;;
34924;SDS011;21130;51.728;8.748;2023-08-24T07:14:27;8.82;;;8.10;;
34924;SDS011;21130;51.728;8.748;2023-08-24T07:16:53;9.75;;;8.27;;
34924;SDS011;21130;51.728;8.748;2023-08-24T07:19:21;7.93;;;7.22;;
34924;SDS011;21130;51.728;8.748;2023-08-24T07:21:48;11.45;;;8.30;;
34924;SDS011;21130;51.728;8.748;2023-08-24T07:24:14;8.05;;;7.25;;
34924;SDS011;21130;51.728;8.748;2023-08-24T07:26:41;7.95;;;7.05;;
34924;SDS011;21130;51.728;8.748;2023-08-24T07:29:07;8.30;;;7.05;;
34924;SDS011;21130;51.728;8.748;2023-08-24T07:31:34;9.15;;;7.00;;
34924;SDS011;21130;51.728;8.748;2023-08-24T07:34:02;8.38;;;6.45;;
34924;SDS011;21130;51.728;8.748;2023-08-24T07:36:30;8.90;;;8.05;;
34924;SDS011;21130;51.728;8.748;2023-08-24T07:38:56;8.90;;;8.00;;
34924;SDS011;21130;51.728;8.748;2023-08-24T07:41:23;7.97;;;7.10;;
34924;SDS011;21130;51.728;8.748;2023-08-24T07:43:49;8.52;;;6.97;;
34924;SDS011;21130;51.728;8.748;2023-08-24T07:46:15;10.50;;;8.23;;
34924;SDS011;21130;51.728;8.748;2023-08-24T07:48:42;9.57;;;7.03;;
34924;SDS011;21130;51.728;8.748;2023-08-24T07:51:09;10.43;;;7.00;;
34924;SDS011;21130;51.728;8.748;2023-08-24T07:53:36;9.43;;;6.30;;
34924;SDS011;21130;51.728;8.748;2023-08-24T07:56:03;9.13;;;6.22;;
34924;SDS011;21130;51.728;8.748;2023-08-24T07:58:30;7.13;;;6.43;;
34924;SDS011;21130;51.728;8.748;2023-08-24T08:00:57;8.02;;;5.72;;
34924;SDS011;21130;51.728;8.748;2023-08-24T08:03:24;6.88;;;6.15;;
34924;SDS011;21130;51.728;8.748;2023-08-24T08:05:51;6.70;;;5.20;;
34924;SDS011;21130;51.728;8.748;2023-08-24T08:08:17;6.60;;;5.10;;
34924;SDS011;21130;51.728;8.748;2023-08-24T08:10:45;6.03;;;5.43;;
34924;SDS011;21130;51.728;8.748;2023-08-24T08:13:12;5.00;;;4.00;;
34924;SDS011;21130;51.728;8.748;2023-08-24T08:15:38;7.80;;;5.20;;
34924;SDS011;21130;51.728;8.748;2023-08-24T08:18:05;7.15;;;4.70;;
34924;SDS011;21130;51.728;8.748;2023-08-24T08:20:31;5.65;;;4.18;;
34924;SDS011;21130;51.728;8.748;2023-08-24T08:22:58;7.53;;;4.65;;
34924;SDS011;21130;51.728;8.748;2023-08-24T08:25:24;6.05;;;4.00;;
34924;SDS011;21130;51.728;8.748;2023-08-24T08:27:52;5.18;;;4.45;;
34924;SDS011;21130;51.728;8.748;2023-08-24T08:30:19;6.38;;;4.30;;
34924;SDS011;21130;51.728;8.748;2023-08-24T08:32:46;5.15;;;3.88;;
34924;SDS011;21130;51.728;8.748;2023-08-24T08:35:12;7.65;;;3.65;;
34924;SDS011;21130;51.728;8.748;2023-08-24T08:37:39;3.80;;;3.03;;
34924;SDS011;21130;51.728;8.748;2023-08-24T08:40:08;5.55;;;3.50;;
34924;SDS011;21130;51.728;8.748;2023-08-24T08:42:36;4.57;;;3.38;;
34924;SDS011;21130;51.728;8.748;2023-08-24T08:45:09;5.25;;;3.50;;
34924;SDS011;21130;51.728;8.748;2023-08-24T08:47:36;7.65;;;3.60;;
34924;SDS011;21130;51.728;8.748;2023-08-24T08:50:04;7.10;;;3.55;;
34924;SDS011;21130;51.728;8.748;2023-08-24T08:52:31;5.13;;;3.20;;
34924;SDS011;21130;51.728;8.748;2023-08-24T08:54:59;6.07;;;3.15;;
34924;SDS011;21130;51.728;8.748;2023-08-24T08:57:25;4.45;;;2.72;;
34924;SDS011;21130;51.728;8.748;2023-08-24T08:59:52;5.03;;;2.58;;
34924;SDS011;21130;51.728;8.748;2023-08-24T09:02:20;3.92;;;2.60;;
34924;SDS011;21130;51.728;8.748;2023-08-24T09:04:48;5.50;;;3.03;;
34924;SDS011;21130;51.728;8.748;2023-08-24T09:07:16;5.82;;;3.17;;
34924;SDS011;21130;51.728;8.748;2023-08-24T09:09:43;5.97;;;3.00;;
34924;SDS011;21130;51.728;8.748;2023-08-24T09:12:09;5.55;;;3.05;;
34924;SDS011;21130;51.728;8.748;2023-08-24T09:14:36;7.50;;;3.42;;
34924;SDS011;21130;51.728;8.748;2023-08-24T09:17:03;4.95;;;2.58;;
34924;SDS011;21130;51.728;8.748;2023-08-24T09:19:32;4.05;;;2.50;;
34924;SDS011;21130;51.728;8.748;2023-08-24T09:22:00;3.63;;;2.67;;
34924;SDS011;21130;51.728;8.748;2023-08-24T09:24:31;6.80;;;2.97;;
34924;SDS011;21130;51.728;8.748;2023-08-24T09:26:58;5.47;;;2.85;;
34924;SDS011;21130;51.728;8.748;2023-08-24T09:29:25;6.50;;;2.58;;
34924;SDS011;21130;51.728;8.748;2023-08-24T09:31:52;5.82;;;3.00;;
34924;SDS011;21130;51.728;8.748;2023-08-24T09:34:18;4.10;;;2.70;;
34924;SDS011;21130;51.728;8.748;2023-08-24T09:36:47;7.72;;;3.72;;
34924;SDS011;21130;51.728;8.748;2023-08-24T09:39:16;7.50;;;3.30;;
34924;SDS011;21130;51.728;8.748;2023-08-24T09:41:44;8.73;;;3.10;;
34924;SDS011;21130;51.728;8.748;2023-08-24T09:44:12;5.57;;;2.97;;
34924;SDS011;21130;51.728;8.748;2023-08-24T09:46:39;5.50;;;3.30;;
34924;SDS011;21130;51.728;8.748;2023-08-24T09:49:07;5.95;;;2.78;;
34924;SDS011;21130;51.728;8.748;2023-08-24T09:51:35;4.07;;;2.83;;
34924;SDS011;21130;51.728;8.748;2023-08-24T09:57:10;4.90;;;3.05;;
34924;SDS011;21130;51.728;8.748;2023-08-24T09:59:38;7.20;;;3.03;;
34924;SDS011;21130;51.728;8.748;2023-08-24T10:02:10;7.22;;;2.85;;
34924;SDS011;21130;51.728;8.748;2023-08-24T10:04:42;6.78;;;2.75;;
34924;SDS011;21130;51.728;8.748;2023-08-24T10:07:10;4.88;;;2.55;;
34924;SDS011;21130;51.728;8.748;2023-08-24T10:09:44;8.40;;;2.40;;
34924;SDS011;21130;51.728;8.748;2023-08-24T10:12:14;7.75;;;2.85;;
34924;SDS011;21130;51.728;8.748;2023-08-24T10:14:47;6.55;;;2.95;;
34924;SDS011;21130;51.728;8.748;2023-08-24T10:17:19;4.63;;;2.78;;
34924;SDS011;21130;51.728;8.748;2023-08-24T10:19:47;4.35;;;2.80;;
34924;SDS011;21130;51.728;8.748;2023-08-24T10:22:14;3.80;;;2.28;;
34924;SDS011;21130;51.728;8.748;2023-08-24T10:24:41;5.70;;;2.78;;
34924;SDS011;21130;51.728;8.748;2023-08-24T10:27:09;5.90;;;2.88;;
34924;SDS011;21130;51.728;8.748;2023-08-24T10:29:38;5.47;;;2.50;;
34924;SDS011;21130;51.728;8.748;2023-08-24T10:32:05;4.90;;;2.53;;
34924;SDS011;21130;51.728;8.748;2023-08-24T10:34:34;3.42;;;2.05;;
34924;SDS011;21130;51.728;8.748;2023-08-24T10:37:06;4.72;;;2.03;;
34924;SDS011;21130;51.728;8.748;2023-08-24T10:39:34;6.00;;;2.42;;
34924;SDS011;21130;51.728;8.748;2023-08-24T10:42:03;5.70;;;2.40;;
34924;SDS011;21130;51.728;8.748;2023-08-24T10:44:35;3.42;;;2.45;;
34924;SDS011;21130;51.728;8.748;2023-08-24T10:47:06;5.85;;;2.75;;
34924;SDS011;21130;51.728;8.748;2023-08-24T10:49:34;5.38;;;2.20;;
34924;SDS011;21130;51.728;8.748;2023-08-24T10:55:03;4.65;;;2.60;;
34924;SDS011;21130;51.728;8.748;2023-08-24T10:57:37;4.50;;;2.47;;
34924;SDS011;21130;51.728;8.748;2023-08-24T11:00:04;3.78;;;2.30;;
34924;SDS011;21130;51.728;8.748;2023-08-24T11:08:45;6.50;;;2.85;;
34924;SDS011;21130;51.728;8.748;2023-08-24T11:11:18;5.18;;;2.45;;
34924;SDS011;21130;51.728;8.748;2023-08-24T11:16:43;4.85;;;2.50;;
34924;SDS011;21130;51.728;8.748;2023-08-24T11:19:10;3.72;;;2.30;;
34924;SDS011;21130;51.728;8.748;2023-08-24T11:21:38;5.60;;;2.40;;
34924;SDS011;21130;51.728;8.748;2023-08-24T11:24:06;4.90;;;2.33;;
34924;SDS011;21130;51.728;8.748;2023-08-24T11:26:33;3.50;;;2.30;;
34924;SDS011;21130;51.728;8.748;2023-08-24T11:29:00;5.45;;;2.58;;
34924;SDS011;21130;51.728;8.748;2023-08-24T11:31:31;3.80;;;2.50;;
34924;SDS011;21130;51.728;8.748;2023-08-24T11:33:59;4.65;;;2.00;;
34924;SDS011;21130;51.728;8.748;2023-08-24T11:36:25;4.90;;;2.38;;
34924;SDS011;21130;51.728;8.748;2023-08-24T11:38:55;6.55;;;2.75;;
34924;SDS011;21130;51.728;8.748;2023-08-24T11:41:24;5.78;;;2.25;;
34924;SDS011;21130;51.728;8.748;2023-08-24T11:43:57;7.07;;;2.47;;
34924;SDS011;21130;51.728;8.748;2023-08-24T11:46:25;3.92;;;2.35;;
34924;SDS011;21130;51.728;8.748;2023-08-24T11:48:53;3.42;;;2.65;;
34924;SDS011;21130;51.728;8.748;2023-08-24T11:51:20;3.65;;;2.30;;
34924;SDS011;21130;51.728;8.748;2023-08-24T11:53:46;3.50;;;2.55;;
34924;SDS011;21130;51.728;8.748;2023-08-24T11:56:13;5.25;;;2.60;;
34924;SDS011;21130;51.728;8.748;2023-08-24T11:58:43;5.80;;;2.55;;
34924;SDS011;21130;51.728;8.748;2023-08-24T12:01:13;5.20;;;2.58;;
34924;SDS011;21130;51.728;8.748;2023-08-24T12:03:40;3.50;;;2.55;;
34924;SDS011;21130;51.728;8.748;2023-08-24T12:06:11;5.40;;;2.50;;
34924;SDS011;21130;51.728;8.748;2023-08-24T12:08:39;4.20;;;2.63;;
34924;SDS011;21130;51.728;8.748;2023-08-24T12:11:10;4.07;;;2.47;;
34924;SDS011;21130;51.728;8.748;2023-08-24T12:13:43;5.10;;;2.35;;
34924;SDS011;21130;51.728;8.748;2023-08-24T12:16:12;3.90;;;2.28;;
34924;SDS011;21130;51.728;8.748;2023-08-24T12:18:46;6.10;;;2.80;;
34924;SDS011;21130;51.728;8.748;2023-08-24T12:21:13;7.15;;;2.50;;
34924;SDS011;21130;51.728;8.748;2023-08-24T12:23:39;5.65;;;2.30;;
34924;SDS011;21130;51.728;8.748;2023-08-24T12:26:06;3.13;;;2.30;;
34924;SDS011;21130;51.728;8.748;2023-08-24T12:28:33;4.60;;;2.63;;
34924;SDS011;21130;51.728;8.748;2023-08-24T12:31:02;4.05;;;2.70;;
34924;SDS011;21130;51.728;8.748;2023-08-24T12:33:29;11.13;;;3.17;;
34924;SDS011;21130;51.728;8.748;2023-08-24T12:35:59;7.00;;;2.65;;
34924;SDS011;21130;51.728;8.748;2023-08-24T12:38:26;5.72;;;3.15;;
34924;SDS011;21130;51.728;8.748;2023-08-24T12:40:53;4.88;;;2.60;;
34924;SDS011;21130;51.728;8.748;2023-08-24T12:43:20;4.95;;;2.72;;
34924;SDS011;21130;51.728;8.748;2023-08-24T12:45:46;4.82;;;2.50;;
34924;SDS011;21130;51.728;8.748;2023-08-24T12:48:14;5.75;;;2.97;;
34924;SDS011;21130;51.728;8.748;2023-08-24T12:50:41;3.22;;;2.63;;
34924;SDS011;21130;51.728;8.748;2023-08-24T12:53:07;3.38;;;2.63;;
34924;SDS011;21130;51.728;8.748;2023-08-24T12:55:35;5.00;;;3.00;;
34924;SDS011;21130;51.728;8.748;2023-08-24T12:58:02;10.30;;;3.08;;
34924;SDS011;21130;51.728;8.748;2023-08-24T13:00:29;5.10;;;2.95;;
34924;SDS011;21130;51.728;8.748;2023-08-24T13:02:56;7.95;;;3.30;;
34924;SDS011;21130;51.728;8.748;2023-08-24T13:05:24;6.63;;;3.08;;
34924;SDS011;21130;51.728;8.748;2023-08-24T13:07:50;6.32;;;2.83;;
34924;SDS011;21130;51.728;8.748;2023-08-24T13:10:18;6.30;;;3.08;;
34924;SDS011;21130;51.728;8.748;2023-08-24T13:12:45;7.30;;;3.00;;
34924;SDS011;21130;51.728;8.748;2023-08-24T13:15:11;3.63;;;3.05;;
34924;SDS011;21130;51.728;8.748;2023-08-24T13:17:37;5.22;;;3.17;;
34924;SDS011;21130;51.728;8.748;2023-08-24T13:20:04;4.47;;;3.13;;
34924;SDS011;21130;51.728;8.748;2023-08-24T13:22:34;7.13;;;3.42;;
34924;SDS011;21130;51.728;8.748;2023-08-24T13:25:00;6.30;;;3.22;;
34924;SDS011;21130;51.728;8.748;2023-08-24T13:27:27;4.00;;;2.67;;
34924;SDS011;21130;51.728;8.748;2023-08-24T13:29:53;4.18;;;3.15;;
34924;SDS011;21130;51.728;8.748;2023-08-24T13:32:24;4.53;;;3.20;;
34924;SDS011;21130;51.728;8.748;2023-08-24T13:34:50;3.20;;;2.67;;
34924;SDS011;21130;51.728;8.748;2023-08-24T13:37:17;7.28;;;2.70;;
34924;SDS011;21130;51.728;8.748;2023-08-24T13:39:45;4.15;;;2.63;;
34924;SDS011;21130;51.728;8.748;2023-08-24T13:42:11;4.88;;;2.60;;
34924;SDS011;21130;51.728;8.748;2023-08-24T13:44:38;7.47;;;2.50;;
34924;SDS011;21130;51.728;8.748;2023-08-24T13:47:05;7.93;;;2.40;;
34924;SDS011;21130;51.728;8.748;2023-08-24T13:49:31;3.33;;;2.10;;
34924;SDS011;21130;51.728;8.748;2023-08-24T13:51:58;2.72;;;2.15;;
34924;SDS011;21130;51.728;8.748;2023-08-24T13:54:24;4.50;;;2.13;;
34924;SDS011;21130;51.728;8.748;2023-08-24T13:56:53;3.22;;;2.00;;
34924;SDS011;21130;51.728;8.748;2023-08-24T13:59:19;2.80;;;2.13;;
34924;SDS011;21130;51.728;8.748;2023-08-24T14:01:47;5.45;;;2.55;;
34924;SDS011;21130;51.728;8.748;2023-08-24T14:04:13;4.88;;;2.35;;
34924;SDS011;21130;51.728;8.748;2023-08-24T14:06:40;3.22;;;2.35;;
34924;SDS011;21130;51.728;8.748;2023-08-24T14:09:06;3.97;;;2.25;;
34924;SDS011;21130;51.728;8.748;2023-08-24T14:11:33;5.57;;;2.20;;
34924;SDS011;21130;51.728;8.748;2023-08-24T14:14:01;4.47;;;2.58;;
34924;SDS011;21130;51.728;8.748;2023-08-24T14:16:27;4.78;;;2.55;;
34924;SDS011;21130;51.728;8.748;2023-08-24T14:18:54;4.70;;;2.25;;
34924;SDS011;21130;51.728;8.748;2023-08-24T14:21:20;4.18;;;2.50;;
34924;SDS011;21130;51.728;8.748;2023-08-24T14:23:48;4.75;;;2.70;;
34924;SDS011;21130;51.728;8.748;2023-08-24T14:26:15;4.90;;;2.38;;
34924;SDS011;21130;51.728;8.748;2023-08-24T14:28:48;5.75;;;2.30;;
34924;SDS011;21130;51.728;8.748;2023-08-24T14:31:20;7.53;;;2.92;;
34924;SDS011;21130;51.728;8.748;2023-08-24T14:33:46;5.57;;;2.85;;
34924;SDS011;21130;51.728;8.748;2023-08-24T14:36:13;5.00;;;3.13;;
34924;SDS011;21130;51.728;8.748;2023-08-24T14:38:40;4.45;;;2.42;;
34924;SDS011;21130;51.728;8.748;2023-08-24T14:41:07;3.78;;;2.92;;
34924;SDS011;21130;51.728;8.748;2023-08-24T14:43:36;6.28;;;2.80;;
34924;SDS011;21130;51.728;8.748;2023-08-24T14:46:03;4.47;;;2.05;;
34924;SDS011;21130;51.728;8.748;2023-08-24T14:48:31;4.15;;;2.67;;
34924;SDS011;21130;51.728;8.748;2023-08-24T14:50:57;4.40;;;2.45;;
34924;SDS011;21130;51.728;8.748;2023-08-24T14:53:24;5.28;;;2.40;;
34924;SDS011;21130;51.728;8.748;2023-08-24T14:55:52;5.47;;;2.78;;
34924;SDS011;21130;51.728;8.748;2023-08-24T14:58:19;8.23;;;2.85;;